Time;durP1;ratioP1;P1;durP2;ratioP2;P2;SDS_P1;SDS_P2;PMS_P1;PMS_P2;Temp;Humidity;BMP_temperature;BMP_pressure;BME280_temperature;BME280_humidity;BME280_pressure;Samples;Min_cycle;Max_cycle;Signal;HPM_P1;HPM_P2
2023/10/30 00:01:45;;;;;;;2.33;1.00;;;11.60;99.90;;;;;;5210953;28;20446;-48
2023/10/30 00:04:15;;;;;;;0.87;0.87;;;11.50;99.90;;;;;;5218572;28;20245;-49
2023/10/30 00:06:46;;;;;;;0.90;0.90;;;11.50;99.90;;;;;;5206407;28;20450;-49
2023/10/30 00:09:17;;;;;;;1.37;0.80;;;11.60;99.90;;;;;;5212461;28;20182;-49
2023/10/30 00:11:49;;;;;;;0.83;0.80;;;11.50;99.90;;;;;;5214213;28;20561;-49
2023/10/30 00:14:20;;;;;;;0.70;0.70;;;11.50;99.90;;;;;;5221073;28;20948;-50
2023/10/30 00:16:50;;;;;;;2.90;0.73;;;11.50;99.90;;;;;;5211218;28;20507;-48
2023/10/30 00:19:21;;;;;;;1.00;1.00;;;11.60;99.90;;;;;;5212333;28;20187;-50
2023/10/30 00:21:51;;;;;;;0.60;0.60;;;11.60;99.90;;;;;;5213140;28;20215;-48
2023/10/30 00:24:23;;;;;;;0.63;0.63;;;11.50;99.90;;;;;;5215933;28;20638;-48
2023/10/30 00:26:54;;;;;;;2.03;0.80;;;11.60;99.90;;;;;;5216438;28;20190;-48
2023/10/30 00:29:25;;;;;;;1.10;1.07;;;11.60;99.90;;;;;;5217775;28;20415;-49
2023/10/30 00:31:55;;;;;;;0.70;0.70;;;11.60;99.90;;;;;;5227464;28;20221;-51
2023/10/30 00:34:26;;;;;;;3.07;0.90;;;11.60;99.90;;;;;;5216449;28;20196;-48
2023/10/30 00:36:57;;;;;;;1.63;1.53;;;11.60;99.90;;;;;;5221373;28;20206;-48
2023/10/30 00:39:31;;;;;;;2.13;0.90;;;11.60;99.90;;;;;;5210141;28;20176;-49
2023/10/30 00:42:02;;;;;;;1.13;0.93;;;11.50;99.90;;;;;;5216112;28;20558;-49
2023/10/30 00:44:33;;;;;;;1.43;1.00;;;11.50;99.90;;;;;;5219336;28;20473;-49
2023/10/30 00:47:05;;;;;;;1.30;1.20;;;11.60;99.90;;;;;;5210124;28;20222;-48
2023/10/30 00:49:35;;;;;;;0.80;0.80;;;11.50;99.90;;;;;;5219736;28;20666;-48
2023/10/30 00:52:06;;;;;;;1.00;0.77;;;11.50;99.90;;;;;;5219428;28;20469;-49
2023/10/30 00:54:37;;;;;;;0.70;0.70;;;11.50;99.90;;;;;;5227255;28;20272;-47
2023/10/30 00:57:07;;;;;;;1.13;1.03;;;11.50;99.90;;;;;;5217151;28;20203;-48
2023/10/30 00:59:38;;;;;;;0.73;0.73;;;11.50;99.90;;;;;;5223584;28;20268;-50
2023/10/30 01:02:08;;;;;;;0.83;0.60;;;11.50;99.90;;;;;;5220650;28;20329;-48
2023/10/30 01:04:39;;;;;;;2.60;1.20;;;11.50;99.90;;;;;;5216544;28;20186;-49
2023/10/30 01:07:10;;;;;;;2.50;0.80;;;11.50;99.90;;;;;;5205816;28;20198;-50
2023/10/30 01:09:41;;;;;;;1.80;0.77;;;11.50;99.90;;;;;;5223182;28;20278;-49
2023/10/30 01:12:12;;;;;;;5.17;0.70;;;11.50;99.90;;;;;;5222368;28;20461;-48
2023/10/30 01:14:42;;;;;;;3.60;0.80;;;11.50;99.90;;;;;;5226400;28;20195;-47
2023/10/30 01:17:13;;;;;;;0.80;0.80;;;11.50;99.90;;;;;;5221677;28;20249;-50
2023/10/30 01:19:43;;;;;;;2.53;0.70;;;11.50;99.90;;;;;;5216408;28;20187;-49
2023/10/30 01:22:14;;;;;;;1.30;0.70;;;11.60;99.90;;;;;;5221126;28;20667;-48
2023/10/30 01:24:45;;;;;;;0.70;0.70;;;11.60;99.90;;;;;;5217789;28;20675;-49
2023/10/30 01:27:15;;;;;;;0.70;0.70;;;11.60;99.90;;;;;;5216915;28;20253;-48
2023/10/30 01:29:46;;;;;;;2.37;0.77;;;11.60;99.90;;;;;;5213789;28;20197;-48
2023/10/30 01:32:17;;;;;;;10.47;0.77;;;11.60;99.90;;;;;;5218156;28;20195;-49
2023/10/30 01:34:49;;;;;;;0.70;0.70;;;11.60;99.90;;;;;;5227523;28;20178;-53
2023/10/30 01:37:20;;;;;;;0.70;0.57;;;11.60;99.90;;;;;;5226249;28;20480;-48
2023/10/30 01:39:51;;;;;;;2.03;0.90;;;11.70;99.90;;;;;;5223987;28;20906;-47
2023/10/30 01:42:22;;;;;;;1.13;0.60;;;11.60;99.90;;;;;;5217446;28;20445;-49
2023/10/30 01:44:54;;;;;;;5.40;0.67;;;11.60;99.90;;;;;;5219445;28;20605;-50
2023/10/30 01:47:25;;;;;;;1.37;1.00;;;11.70;99.90;;;;;;5208564;28;20188;-52
2023/10/30 01:49:57;;;;;;;0.80;0.80;;;11.60;99.90;;;;;;5233762;28;20444;-51
2023/10/30 01:52:37;;;;;;;0.97;0.77;;;11.70;99.90;;;;;;5237301;23;20233;-52
2023/10/30 01:55:09;;;;;;;2.67;0.50;;;11.70;99.90;;;;;;5197575;28;20441;-52
2023/10/30 01:57:43;;;;;;;1.03;0.60;;;11.60;99.90;;;;;;5214431;28;20667;-48
2023/10/30 02:00:15;;;;;;;2.20;0.80;;;11.70;99.90;;;;;;5215124;28;20567;-48
2023/10/30 02:02:46;;;;;;;6.23;0.83;;;11.70;99.90;;;;;;5214694;28;20961;-48
2023/10/30 02:05:17;;;;;;;1.13;0.50;;;11.70;99.90;;;;;;5214978;28;20427;-49
2023/10/30 02:07:48;;;;;;;0.50;0.50;;;11.70;99.90;;;;;;5216624;28;20520;-50
2023/10/30 02:10:19;;;;;;;0.90;0.77;;;11.70;99.90;;;;;;5221377;28;20516;-51
2023/10/30 02:12:50;;;;;;;1.03;0.60;;;11.80;99.90;;;;;;5218643;28;20971;-49
2023/10/30 02:15:24;;;;;;;1.53;0.90;;;11.70;99.90;;;;;;5213797;28;21269;-50
2023/10/30 02:17:55;;;;;;;3.80;0.87;;;11.70;99.90;;;;;;5217108;28;20580;-50
2023/10/30 02:20:27;;;;;;;0.60;0.60;;;11.70;99.90;;;;;;5216633;28;20452;-49
2023/10/30 02:22:58;;;;;;;2.07;0.80;;;11.70;99.90;;;;;;5217642;28;20814;-49
2023/10/30 02:25:32;;;;;;;0.50;0.50;;;11.60;99.90;;;;;;5214970;28;20525;-50
2023/10/30 02:28:03;;;;;;;0.43;0.43;;;11.60;99.90;;;;;;5221607;28;20186;-49
2023/10/30 02:30:34;;;;;;;0.57;0.57;;;11.60;99.90;;;;;;5215943;28;20801;-49
2023/10/30 02:33:05;;;;;;;2.20;1.03;;;11.50;99.90;;;;;;5215023;28;20441;-49
2023/10/30 02:35:36;;;;;;;0.60;0.50;;;11.60;99.90;;;;;;5201820;28;20635;-51
2023/10/30 02:38:08;;;;;;;5.13;0.80;;;11.60;99.90;;;;;;5215257;28;20203;-49
2023/10/30 02:40:41;;;;;;;1.70;0.50;;;11.50;99.90;;;;;;5212722;28;20438;-48
2023/10/30 02:43:14;;;;;;;2.90;0.87;;;11.50;99.90;;;;;;5213746;28;20494;-52
2023/10/30 02:45:53;;;;;;;2.13;1.37;;;11.50;99.90;;;;;;5214877;28;21083;-48
2023/10/30 02:48:24;;;;;;;5.43;0.77;;;11.60;99.90;;;;;;5220469;28;20743;-49
2023/10/30 02:50:58;;;;;;;3.03;0.60;;;11.50;99.90;;;;;;5220902;28;20469;-48
2023/10/30 02:53:36;;;;;;;1.13;0.70;;;11.60;99.90;;;;;;5213945;28;20171;-50
2023/10/30 02:56:07;;;;;;;0.73;0.73;;;11.50;99.90;;;;;;5222435;28;20425;-48
2023/10/30 02:58:40;;;;;;;2.47;1.07;;;11.60;99.90;;;;;;5222620;28;20469;-50
2023/10/30 03:01:17;;;;;;;2.00;0.60;;;11.60;99.90;;;;;;5214015;28;20460;-49
2023/10/30 03:03:47;;;;;;;2.93;0.73;;;11.60;99.90;;;;;;5215290;28;20476;-49
2023/10/30 03:06:25;;;;;;;1.90;0.93;;;11.60;99.90;;;;;;5215202;28;20844;-51
2023/10/30 03:09:01;;;;;;;0.80;0.60;;;11.60;99.90;;;;;;5213899;28;20541;-49
2023/10/30 03:11:31;;;;;;;2.00;0.70;;;11.60;99.90;;;;;;5222677;28;20491;-49
2023/10/30 03:14:02;;;;;;;0.70;0.70;;;11.50;99.90;;;;;;5212689;28;20426;-51
2023/10/30 03:16:33;;;;;;;0.80;0.50;;;11.60;99.90;;;;;;5214492;28;20651;-53
2023/10/30 03:19:07;;;;;;;4.00;0.70;;;11.60;99.90;;;;;;5217607;28;20194;-52
2023/10/30 03:21:40;;;;;;;3.90;0.67;;;11.60;99.90;;;;;;5217228;28;20254;-51
2023/10/30 03:24:11;;;;;;;2.60;0.70;;;11.60;99.90;;;;;;5218504;28;20435;-48
2023/10/30 03:26:42;;;;;;;0.43;0.43;;;11.60;99.90;;;;;;5215022;28;20433;-49
2023/10/30 03:29:13;;;;;;;1.13;0.60;;;11.60;99.90;;;;;;5210454;28;21073;-51
2023/10/30 03:31:44;;;;;;;2.13;0.83;;;11.60;99.90;;;;;;5221383;28;20225;-48
2023/10/30 03:34:18;;;;;;;3.27;0.90;;;11.50;99.90;;;;;;5213432;28;20233;-49
2023/10/30 03:36:49;;;;;;;2.30;0.80;;;11.60;99.90;;;;;;5210141;28;20992;-49
2023/10/30 03:39:20;;;;;;;0.70;0.70;;;11.60;99.90;;;;;;5216220;28;20430;-50
2023/10/30 03:41:51;;;;;;;1.27;0.90;;;11.50;99.90;;;;;;5216745;28;20508;-49
2023/10/30 03:44:24;;;;;;;2.83;0.70;;;11.60;99.90;;;;;;5213625;28;20592;-49
2023/10/30 03:46:55;;;;;;;2.83;0.90;;;11.60;99.90;;;;;;5217487;28;20191;-51
2023/10/30 03:49:26;;;;;;;1.13;0.63;;;11.60;99.90;;;;;;5213217;28;20442;-49
2023/10/30 03:52:00;;;;;;;2.13;0.70;;;11.50;99.90;;;;;;5202059;28;20293;-49
2023/10/30 03:54:31;;;;;;;0.93;0.93;;;11.60;99.90;;;;;;5218349;28;20199;-48
2023/10/30 03:57:02;;;;;;;1.37;0.70;;;11.50;99.90;;;;;;5217369;28;20519;-49
2023/10/30 03:59:41;;;;;;;1.30;0.97;;;11.50;99.90;;;;;;5213346;28;20190;-50
2023/10/30 04:02:12;;;;;;;6.33;0.97;;;11.50;99.90;;;;;;5210082;28;20445;-50
2023/10/30 04:04:42;;;;;;;1.17;0.70;;;11.50;99.90;;;;;;5210645;28;21022;-49
2023/10/30 04:07:13;;;;;;;2.57;0.60;;;11.50;99.90;;;;;;5218322;28;20556;-49
2023/10/30 04:09:44;;;;;;;1.40;0.60;;;11.50;99.90;;;;;;5212789;28;20615;-50
2023/10/30 04:12:15;;;;;;;2.00;0.50;;;11.50;99.90;;;;;;5213068;28;20215;-48
2023/10/30 04:14:48;;;;;;;0.90;0.90;;;11.50;99.90;;;;;;5209787;28;20198;-50
2023/10/30 04:17:25;;;;;;;0.90;0.90;;;11.40;99.90;;;;;;5212595;28;20207;-49
2023/10/30 04:20:16;;;;;;;0.80;0.80;;;11.50;99.90;;;;;;5219028;28;20452;-49
2023/10/30 04:22:53;;;;;;;1.13;0.90;;;11.60;99.90;;;;;;5205847;28;20863;-49
2023/10/30 04:25:24;;;;;;;1.17;0.60;;;11.50;99.90;;;;;;5222344;28;20426;-50
2023/10/30 04:27:55;;;;;;;2.53;0.83;;;11.70;99.90;;;;;;5220798;28;20831;-48
2023/10/30 04:30:26;;;;;;;1.00;0.87;;;11.60;99.90;;;;;;5216234;28;20663;-51
2023/10/30 04:33:02;;;;;;;1.37;0.80;;;11.50;99.90;;;;;;5209752;28;20282;-49
2023/10/30 04:35:33;;;;;;;0.70;0.47;;;11.60;99.90;;;;;;5220258;28;20187;-49
2023/10/30 04:38:04;;;;;;;2.30;0.70;;;11.80;99.90;;;;;;5225938;28;21021;-48
2023/10/30 04:40:37;;;;;;;1.87;0.80;;;11.80;99.90;;;;;;5219524;28;20523;-48
2023/10/30 04:43:08;;;;;;;1.00;0.90;;;11.70;99.90;;;;;;5219625;28;20186;-48
2023/10/30 04:45:39;;;;;;;0.67;0.60;;;11.80;99.90;;;;;;5221308;28;20937;-52
2023/10/30 04:48:13;;;;;;;1.07;0.67;;;11.70;99.90;;;;;;5217796;28;20190;-49
2023/10/30 04:50:53;;;;;;;6.27;0.70;;;11.60;99.90;;;;;;5225728;28;20212;-49
2023/10/30 04:53:23;;;;;;;1.23;0.40;;;11.70;99.90;;;;;;5217615;28;20474;-49
2023/10/30 04:55:55;;;;;;;1.70;0.50;;;11.80;99.90;;;;;;5218239;28;20485;-49
2023/10/30 04:58:29;;;;;;;5.90;1.07;;;11.70;99.90;;;;;;5220737;28;20211;-50
2023/10/30 05:01:09;;;;;;;3.43;1.20;;;11.60;99.90;;;;;;5224520;28;20506;-50
2023/10/30 05:03:39;;;;;;;4.60;1.13;;;11.60;99.90;;;;;;5213028;28;20434;-47
2023/10/30 05:06:10;;;;;;;6.00;1.20;;;11.50;99.90;;;;;;5221778;28;20456;-49
2023/10/30 05:08:44;;;;;;;0.87;0.87;;;11.60;99.90;;;;;;5227354;28;20561;-49
2023/10/30 05:11:15;;;;;;;0.67;0.67;;;11.50;99.90;;;;;;5219236;28;20571;-50
2023/10/30 05:13:46;;;;;;;0.90;0.90;;;11.50;99.90;;;;;;5215171;28;20438;-49
2023/10/30 05:16:19;;;;;;;1.53;1.07;;;11.50;99.90;;;;;;5214766;28;20184;-47
2023/10/30 05:18:50;;;;;;;2.10;1.30;;;11.40;99.90;;;;;;5218390;28;20652;-48
2023/10/30 05:21:24;;;;;;;1.90;1.23;;;11.40;99.90;;;;;;5221123;28;20762;-49
2023/10/30 05:23:58;;;;;;;2.93;1.27;;;11.30;99.90;;;;;;5221467;28;20175;-49
2023/10/30 05:26:29;;;;;;;2.03;1.10;;;11.30;99.90;;;;;;5219139;28;20438;-50
2023/10/30 05:29:00;;;;;;;2.10;1.80;;;11.30;99.90;;;;;;5218688;28;20851;-48
2023/10/30 05:31:33;;;;;;;2.00;1.43;;;11.40;99.90;;;;;;5214048;28;20289;-50
2023/10/30 05:34:05;;;;;;;2.23;1.17;;;11.40;99.90;;;;;;5214537;28;20543;-53
2023/10/30 05:36:35;;;;;;;3.30;0.97;;;11.40;99.90;;;;;;5217478;28;20430;-49
2023/10/30 05:39:09;;;;;;;0.83;0.83;;;11.40;99.90;;;;;;5213114;28;20428;-54
2023/10/30 05:41:43;;;;;;;1.20;1.10;;;11.60;99.90;;;;;;5221312;28;20435;-49
2023/10/30 05:44:13;;;;;;;1.43;0.87;;;11.50;99.90;;;;;;5215005;28;20426;-48
2023/10/30 05:46:44;;;;;;;9.10;1.00;;;11.70;99.90;;;;;;5221824;28;20448;-49
2023/10/30 05:49:15;;;;;;;1.63;1.50;;;11.60;99.90;;;;;;5212547;28;20199;-49
2023/10/30 05:51:46;;;;;;;2.00;1.23;;;11.60;99.90;;;;;;5217720;28;20219;-51
2023/10/30 05:54:38;;;;;;;;;;;;;;;;;;;;;
2023/10/30 05:57:10;;;;;;;5.00;1.03;;;11.50;99.90;;;;;;5221557;28;20212;-52
2023/10/30 05:59:42;;;;;;;3.20;1.40;;;11.40;99.90;;;;;;5213512;28;20422;-49
2023/10/30 06:02:14;;;;;;;2.63;1.03;;;11.50;99.90;;;;;;5219379;28;20488;-49
2023/10/30 06:04:46;;;;;;;3.50;1.10;;;11.60;99.90;;;;;;5219951;28;20438;-50
2023/10/30 06:07:17;;;;;;;2.00;1.20;;;11.50;99.90;;;;;;5222304;28;20456;-50
2023/10/30 06:09:48;;;;;;;1.90;1.43;;;11.50;99.90;;;;;;5214388;28;20442;-51
2023/10/30 06:12:19;;;;;;;1.60;1.10;;;11.50;99.90;;;;;;5200655;28;20260;-48
2023/10/30 06:14:50;;;;;;;2.10;1.23;;;11.80;99.90;;;;;;5215823;28;20443;-49
2023/10/30 06:17:20;;;;;;;3.13;1.10;;;11.70;99.90;;;;;;5208571;28;20295;-49
2023/10/30 06:19:54;;;;;;;2.70;1.13;;;11.90;99.90;;;;;;5223651;28;20561;-49
2023/10/30 06:22:24;;;;;;;1.90;1.00;;;11.90;99.90;;;;;;5222441;28;20695;-49
2023/10/30 06:24:55;;;;;;;5.60;1.17;;;11.90;99.90;;;;;;5216929;28;20426;-49
2023/10/30 06:27:27;;;;;;;1.20;1.10;;;12.00;99.90;;;;;;5206088;28;20191;-50
2023/10/30 06:29:58;;;;;;;3.07;1.50;;;12.00;99.90;;;;;;5217947;28;20707;-48
2023/10/30 06:32:31;;;;;;;1.47;1.37;;;12.30;99.90;;;;;;5218996;28;20967;-50
2023/10/30 06:35:02;;;;;;;1.33;1.00;;;12.50;99.90;;;;;;5212178;28;20438;-50
2023/10/30 06:37:33;;;;;;;2.63;1.47;;;12.50;99.90;;;;;;5214653;28;20824;-49
2023/10/30 06:40:06;;;;;;;3.17;1.40;;;12.40;99.90;;;;;;5216666;28;20453;-48
2023/10/30 06:42:37;;;;;;;5.53;2.30;;;12.40;99.90;;;;;;5219303;28;20207;-50
2023/10/30 06:45:15;;;;;;;0.90;0.90;;;12.40;99.90;;;;;;5217100;28;20480;-51
2023/10/30 06:47:46;;;;;;;2.60;1.30;;;12.40;99.90;;;;;;5222662;28;20206;-50
2023/10/30 06:50:17;;;;;;;5.03;2.10;;;12.60;99.90;;;;;;5218843;28;20472;-49
2023/10/30 06:52:47;;;;;;;2.97;1.50;;;12.60;99.90;;;;;;5225627;28;20238;-49
2023/10/30 06:55:18;;;;;;;4.77;0.80;;;12.80;99.90;;;;;;5216079;28;20214;-50
2023/10/30 06:57:49;;;;;;;2.03;1.00;;;12.90;99.90;;;;;;5216102;28;20270;-50
2023/10/30 07:00:20;;;;;;;1.57;1.20;;;13.10;99.90;;;;;;5213002;28;20762;-51
2023/10/30 07:02:51;;;;;;;1.17;1.13;;;13.40;99.90;;;;;;5223180;28;20222;-48
2023/10/30 07:05:22;;;;;;;1.80;1.70;;;13.60;99.90;;;;;;5238103;28;20462;-50
2023/10/30 07:07:52;;;;;;;2.40;1.70;;;13.50;99.90;;;;;;5215381;28;20194;-48
2023/10/30 07:10:23;;;;;;;4.27;1.47;;;13.50;99.90;;;;;;5220333;28;20207;-49
2023/10/30 07:12:54;;;;;;;1.57;1.23;;;13.40;99.90;;;;;;5218234;28;20202;-49
2023/10/30 07:15:26;;;;;;;2.63;0.90;;;13.50;99.90;;;;;;5210977;28;20179;-51
2023/10/30 07:17:57;;;;;;;3.30;1.40;;;13.70;99.90;;;;;;5214903;28;20198;-49
2023/10/30 07:20:28;;;;;;;3.63;1.40;;;13.80;99.90;;;;;;5212966;28;20469;-50
2023/10/30 07:22:58;;;;;;;3.23;1.03;;;14.00;99.90;;;;;;5212716;28;20192;-48
2023/10/30 07:25:29;;;;;;;5.10;1.70;;;14.30;99.90;;;;;;5214493;28;20192;-48
2023/10/30 07:28:00;;;;;;;2.73;1.40;;;14.50;99.90;;;;;;5215599;28;20232;-50
2023/10/30 07:30:31;;;;;;;1.17;0.93;;;14.70;99.90;;;;;;5219671;28;20183;-48
2023/10/30 07:33:02;;;;;;;5.10;0.90;;;14.70;99.90;;;;;;5217779;28;20290;-49
2023/10/30 07:35:32;;;;;;;4.37;1.13;;;14.70;99.90;;;;;;5213374;28;20240;-49
2023/10/30 07:38:03;;;;;;;1.27;0.87;;;14.70;99.90;;;;;;5213108;28;20202;-48
2023/10/30 07:40:34;;;;;;;5.10;1.00;;;14.60;99.90;;;;;;5216235;28;20237;-49
2023/10/30 07:43:05;;;;;;;3.30;1.10;;;14.70;99.90;;;;;;5213296;28;20437;-50
2023/10/30 07:45:41;;;;;;;4.37;1.13;;;14.70;99.90;;;;;;5214574;28;20191;-50
2023/10/30 07:48:12;;;;;;;2.63;1.20;;;14.70;99.90;;;;;;5216711;28;20190;-51
2023/10/30 07:50:43;;;;;;;1.60;1.50;;;14.70;99.90;;;;;;5211967;28;20437;-50
2023/10/30 07:53:16;;;;;;;6.17;1.00;;;14.80;99.90;;;;;;5217209;28;20190;-50
2023/10/30 07:55:47;;;;;;;4.40;1.10;;;14.90;99.90;;;;;;5215081;28;20183;-51
2023/10/30 07:58:18;;;;;;;2.53;1.17;;;15.00;99.90;;;;;;5211368;28;21007;-51
2023/10/30 08:00:49;;;;;;;2.47;0.80;;;15.00;99.90;;;;;;5212732;28;20306;-51
2023/10/30 08:03:20;;;;;;;2.40;1.53;;;15.10;99.90;;;;;;5219801;28;20238;-50
2023/10/30 08:05:50;;;;;;;1.80;0.90;;;15.30;99.90;;;;;;5211891;28;20254;-50
2023/10/30 08:08:22;;;;;;;2.93;1.47;;;15.40;99.90;;;;;;5215326;28;20683;-50
2023/10/30 08:10:53;;;;;;;6.50;0.90;;;15.50;99.90;;;;;;5220203;28;20654;-49
2023/10/30 08:13:23;;;;;;;3.90;1.17;;;15.50;99.90;;;;;;5237108;28;20425;-51
2023/10/30 08:15:54;;;;;;;3.70;1.57;;;15.40;99.90;;;;;;5231583;28;20446;-54
2023/10/30 08:18:25;;;;;;;3.63;1.63;;;15.50;99.90;;;;;;5209727;28;20207;-51
2023/10/30 08:20:58;;;;;;;2.10;1.07;;;15.50;99.90;;;;;;5212616;28;20869;-52
2023/10/30 08:23:30;;;;;;;6.73;2.00;;;15.40;99.90;;;;;;5211059;28;20190;-49
2023/10/30 08:26:01;;;;;;;4.20;1.33;;;15.20;99.90;;;;;;5212979;28;20529;-51
2023/10/30 08:28:32;;;;;;;2.57;1.10;;;15.20;99.90;;;;;;5211253;28;20854;-51
2023/10/30 08:31:03;;;;;;;3.23;1.10;;;15.20;99.90;;;;;;5212506;28;20457;-52
2023/10/30 08:33:33;;;;;;;3.47;1.37;;;15.10;99.90;;;;;;5216458;28;20794;-51
2023/10/30 08:36:05;;;;;;;3.90;1.07;;;15.10;99.90;;;;;;5214378;28;20189;-50
2023/10/30 08:38:40;;;;;;;3.50;1.40;;;15.10;99.90;;;;;;5216237;28;20313;-50
2023/10/30 08:41:15;;;;;;;2.73;1.30;;;15.20;99.90;;;;;;5213108;28;20456;-50
2023/10/30 08:43:47;;;;;;;7.60;1.60;;;15.10;99.90;;;;;;5211358;28;20440;-51
2023/10/30 08:46:21;;;;;;;4.07;1.83;;;15.20;99.90;;;;;;5211009;28;20836;-51
2023/10/30 08:48:52;;;;;;;3.80;1.93;;;15.30;99.90;;;;;;5216298;28;20454;-53
2023/10/30 08:51:23;;;;;;;5.60;1.83;;;15.30;99.90;;;;;;5215212;28;20856;-51
2023/10/30 08:53:54;;;;;;;2.30;1.53;;;15.40;99.90;;;;;;5201598;28;20505;-52
2023/10/30 08:56:25;;;;;;;5.07;1.63;;;15.50;99.90;;;;;;5213904;28;20439;-50
2023/10/30 08:58:56;;;;;;;7.13;1.87;;;15.50;99.90;;;;;;5217411;28;20212;-50
2023/10/30 09:01:26;;;;;;;2.57;1.50;;;15.80;99.90;;;;;;5215444;28;20268;-52
2023/10/30 09:03:57;;;;;;;8.93;1.83;;;15.80;99.90;;;;;;5219729;28;20599;-52
2023/10/30 09:06:28;;;;;;;3.40;1.40;;;15.90;99.90;;;;;;5213874;28;20219;-53
2023/10/30 09:08:59;;;;;;;2.50;1.40;;;16.10;99.90;;;;;;5218806;28;20439;-52
2023/10/30 09:11:32;;;;;;;3.30;1.80;;;16.30;99.90;;;;;;5223651;28;20225;-51
2023/10/30 09:14:03;;;;;;;3.50;1.30;;;16.50;99.90;;;;;;5221556;28;20191;-51
2023/10/30 09:16:34;;;;;;;4.30;1.37;;;16.50;99.90;;;;;;5224129;28;20463;-51
2023/10/30 09:19:05;;;;;;;3.27;1.40;;;16.60;99.90;;;;;;5217038;28;20793;-51
2023/10/30 09:21:39;;;;;;;2.97;1.60;;;16.60;99.90;;;;;;5219424;28;20252;-51
2023/10/30 09:24:10;;;;;;;10.70;1.47;;;16.70;99.90;;;;;;5217211;28;20180;-53
2023/10/30 09:26:43;;;;;;;1.10;1.10;;;16.70;99.90;;;;;;5215237;28;20794;-51
2023/10/30 09:29:15;;;;;;;4.93;1.93;;;16.50;99.90;;;;;;5214798;28;20840;-51
2023/10/30 09:31:46;;;;;;;2.00;1.87;;;16.40;99.90;;;;;;5215989;28;20461;-53
2023/10/30 09:34:17;;;;;;;3.57;1.13;;;16.30;99.90;;;;;;5216669;28;20442;-51
2023/10/30 09:36:50;;;;;;;3.87;1.80;;;16.30;99.90;;;;;;5219206;28;20894;-52
2023/10/30 09:39:21;;;;;;;2.10;1.30;;;16.30;99.90;;;;;;5216584;28;20430;-51
2023/10/30 09:41:54;;;;;;;3.07;1.70;;;16.30;99.90;;;;;;5219624;28;20457;-51
2023/10/30 09:44:26;;;;;;;5.10;1.27;;;16.40;99.90;;;;;;5208677;28;20270;-50
2023/10/30 09:47:02;;;;;;;6.40;1.67;;;16.40;99.90;;;;;;5216148;28;20777;-51
2023/10/30 09:49:33;;;;;;;6.40;1.60;;;16.50;99.90;;;;;;5197070;28;20667;-51
2023/10/30 09:52:06;;;;;;;2.20;1.67;;;16.50;99.90;;;;;;5215390;28;21025;-52
2023/10/30 09:54:38;;;;;;;2.80;1.50;;;16.70;99.90;;;;;;5218453;28;20488;-53
2023/10/30 09:57:09;;;;;;;4.33;1.50;;;16.70;99.90;;;;;;5202835;28;20461;-50
2023/10/30 09:59:42;;;;;;;4.47;2.33;;;16.80;99.90;;;;;;5217134;28;20458;-50
2023/10/30 10:02:15;;;;;;;2.70;1.37;;;17.00;99.90;;;;;;5216676;28;20469;-50
2023/10/30 10:04:46;;;;;;;3.40;1.33;;;17.20;99.90;;;;;;5218713;28;20446;-51
2023/10/30 10:07:21;;;;;;;7.03;1.37;;;17.20;99.90;;;;;;5214556;28;20448;-52
2023/10/30 10:10:03;;;;;;;3.77;1.77;;;17.10;99.90;;;;;;5215849;28;20508;-50
2023/10/30 10:12:36;;;;;;;3.17;1.87;;;17.00;99.90;;;;;;5216519;28;20533;-51
2023/10/30 10:15:11;;;;;;;1.80;1.30;;;17.10;99.90;;;;;;5211078;28;20975;-50
2023/10/30 10:17:45;;;;;;;8.27;1.93;;;17.10;99.90;;;;;;5215343;28;20584;-51
2023/10/30 10:20:17;;;;;;;4.73;1.77;;;17.20;99.90;;;;;;5219022;28;20446;-51
2023/10/30 10:22:48;;;;;;;7.27;2.20;;;17.20;99.90;;;;;;5217035;28;20455;-52
2023/10/30 10:25:18;;;;;;;4.10;2.03;;;17.10;99.90;;;;;;5215631;28;20429;-51
2023/10/30 10:27:54;;;;;;;4.73;1.40;;;17.10;99.90;;;;;;5220758;28;20210;-51
2023/10/30 10:30:26;;;;;;;4.63;1.17;;;17.20;99.90;;;;;;5215205;28;20195;-50
2023/10/30 10:32:57;;;;;;;3.10;1.63;;;17.30;99.90;;;;;;5217328;28;20458;-51
2023/10/30 10:35:33;;;;;;;4.30;1.50;;;17.30;99.90;;;;;;5211567;28;20449;-50
2023/10/30 10:38:16;;;;;;;4.63;1.30;;;17.40;99.90;;;;;;5220635;28;20535;-50
2023/10/30 10:40:49;;;;;;;10.90;1.53;;;17.50;99.90;;;;;;5213241;28;20517;-51
2023/10/30 10:43:31;;;;;;;3.87;1.43;;;17.50;99.90;;;;;;5217496;28;20537;-50
2023/10/30 10:46:02;;;;;;;2.87;1.60;;;17.60;99.90;;;;;;5195367;28;20502;-50
2023/10/30 10:48:33;;;;;;;2.67;1.70;;;17.60;99.90;;;;;;5218450;28;20419;-51
2023/10/30 10:51:04;;;;;;;7.60;1.67;;;17.60;99.90;;;;;;5214963;28;20483;-49
2023/10/30 10:53:37;;;;;;;7.80;2.23;;;17.70;99.90;;;;;;5216363;28;20270;-53
2023/10/30 10:56:10;;;;;;;6.53;1.70;;;17.70;99.90;;;;;;5219445;28;20436;-50
2023/10/30 10:59:01;;;;;;;2.10;1.30;;;17.60;99.90;;;;;;5213758;28;21032;-52
2023/10/30 11:01:38;;;;;;;2.07;1.87;;;17.50;99.90;;;;;;5215791;28;20453;-50
2023/10/30 11:04:16;;;;;;;2.50;1.70;;;17.40;99.90;;;;;;5222151;28;20497;-51
2023/10/30 11:06:57;;;;;;;2.63;0.90;;;17.20;99.90;;;;;;5215345;28;20469;-49
2023/10/30 11:09:49;;;;;;;4.93;1.40;;;17.00;99.90;;;;;;5213164;28;20472;-50
2023/10/30 11:12:42;;;;;;;15.33;1.40;;;16.80;99.90;;;;;;5211615;28;20454;-50
2023/10/30 11:15:34;;;;;;;1.00;0.90;;;16.60;99.90;;;;;;5214075;28;20441;-49
2023/10/30 11:18:24;;;;;;;3.10;1.53;;;16.50;99.90;;;;;;5215928;28;21019;-51
2023/10/30 11:21:17;;;;;;;6.80;2.00;;;16.50;99.90;;;;;;5218346;28;20492;-50
2023/10/30 11:23:56;;;;;;;1.47;1.13;;;16.50;99.90;;;;;;5212350;28;20425;-51
2023/10/30 11:26:30;;;;;;;3.30;1.73;;;16.30;99.90;;;;;;5216638;28;20461;-50
2023/10/30 11:29:01;;;;;;;2.83;1.63;;;16.20;99.90;;;;;;5223940;28;20438;-50
2023/10/30 11:31:49;;;;;;;6.57;1.70;;;16.10;99.90;;;;;;5208509;28;20462;-50
2023/10/30 11:34:28;;;;;;;1.53;1.10;;;16.20;99.90;;;;;;5214910;28;20233;-50
2023/10/30 11:37:12;;;;;;;2.10;1.40;;;16.20;99.90;;;;;;5211139;28;20455;-51
2023/10/30 11:39:43;;;;;;;1.43;1.30;;;16.10;99.90;;;;;;5235502;28;20429;-50
2023/10/30 11:42:24;;;;;;;3.67;1.77;;;16.10;99.90;;;;;;5211143;28;20450;-51
2023/10/30 11:45:18;;;;;;;2.60;1.50;;;16.10;99.90;;;;;;5218922;28;20448;-49
2023/10/30 11:48:08;;;;;;;5.10;0.80;;;16.30;99.90;;;;;;5216769;28;20433;-51
2023/10/30 11:50:43;;;;;;;4.93;1.17;;;16.40;99.90;;;;;;5215203;28;20862;-50
2023/10/30 11:53:19;;;;;;;5.60;1.07;;;16.40;99.90;;;;;;5214679;28;20452;-50
2023/10/30 11:55:51;;;;;;;3.73;1.47;;;16.20;99.90;;;;;;5213377;28;20476;-51
2023/10/30 11:58:23;;;;;;;6.83;2.60;;;16.00;99.90;;;;;;5212897;28;20838;-51
2023/10/30 12:00:58;;;;;;;5.00;1.60;;;15.90;99.90;;;;;;5214364;28;20499;-51
2023/10/30 12:03:28;;;;;;;5.70;1.70;;;15.70;99.90;;;;;;5210939;28;20464;-50
2023/10/30 12:05:59;;;;;;;4.40;2.10;;;15.60;99.90;;;;;;5213481;28;20435;-50
2023/10/30 12:08:33;;;;;;;5.10;2.23;;;15.60;99.90;;;;;;5218569;28;20195;-51
2023/10/30 12:11:04;;;;;;;2.20;1.40;;;15.50;99.90;;;;;;5198046;28;20676;-50
2023/10/30 12:13:35;;;;;;;8.23;1.33;;;15.50;99.90;;;;;;5234583;28;20533;-50
2023/10/30 12:16:06;;;;;;;2.03;1.57;;;15.60;99.90;;;;;;5216340;28;20493;-50
2023/10/30 12:18:37;;;;;;;6.80;2.27;;;15.60;99.90;;;;;;5208561;28;20230;-51
2023/10/30 12:21:11;;;;;;;2.63;1.47;;;15.70;99.90;;;;;;5212025;28;20218;-49
2023/10/30 12:23:49;;;;;;;2.23;0.83;;;15.60;99.90;;;;;;5214569;28;20179;-51
2023/10/30 12:26:21;;;;;;;5.20;3.80;;;15.80;99.90;;;;;;5214652;28;20461;-49
2023/10/30 12:28:57;;;;;;;3.77;2.47;;;15.80;99.90;;;;;;5216673;28;20926;-51
2023/10/30 12:31:30;;;;;;;5.27;2.10;;;15.90;99.90;;;;;;5210525;28;20785;-49
2023/10/30 12:34:18;;;;;;;8.63;1.60;;;15.60;99.90;;;;;;5208308;28;20922;-50
2023/10/30 12:36:48;;;;;;;5.30;1.40;;;15.60;99.90;;;;;;5208104;28;20461;-50
2023/10/30 12:39:21;;;;;;;2.23;1.60;;;15.50;99.90;;;;;;5213483;28;20469;-50
2023/10/30 12:41:55;;;;;;;7.13;1.60;;;15.70;99.90;;;;;;5215560;28;20290;-51
2023/10/30 12:44:29;;;;;;;2.10;1.40;;;15.80;99.90;;;;;;5216902;28;20440;-52
2023/10/30 12:46:59;;;;;;;1.00;1.00;;;15.80;99.90;;;;;;5215200;28;20525;-50
2023/10/30 12:49:33;;;;;;;2.77;1.60;;;15.80;99.90;;;;;;5216236;28;20877;-50
2023/10/30 12:52:04;;;;;;;1.60;1.50;;;15.60;99.90;;;;;;5214079;28;20221;-51
2023/10/30 12:54:41;;;;;;;5.97;2.77;;;15.60;99.90;;;;;;5204126;28;20441;-50
2023/10/30 12:57:15;;;;;;;1.40;1.30;;;15.80;99.90;;;;;;5217022;28;20206;-51
2023/10/30 12:59:46;;;;;;;6.37;2.20;;;16.10;99.90;;;;;;5215744;28;21041;-50
2023/10/30 13:02:16;;;;;;;2.00;1.33;;;16.20;99.90;;;;;;5219898;28;20559;-51
2023/10/30 13:04:47;;;;;;;8.70;2.97;;;16.40;99.90;;;;;;5216055;28;20180;-52
2023/10/30 13:07:18;;;;;;;7.70;1.70;;;16.50;99.90;;;;;;5219281;28;20224;-50
2023/10/30 13:09:48;;;;;;;1.60;1.30;;;16.60;99.90;;;;;;5222265;28;20194;-50
2023/10/30 13:12:19;;;;;;;1.60;1.50;;;16.80;99.90;;;;;;5223846;28;20285;-52
2023/10/30 13:14:50;;;;;;;7.57;1.43;;;16.90;99.90;;;;;;5220966;28;20179;-51
2023/10/30 13:17:23;;;;;;;0.63;0.63;;;16.80;99.90;;;;;;5221026;28;20466;-51